createdAt,value
2022-09-23T00:00:22.805Z,101881.42
2022-09-23T00:00:52.791Z,101876.62
2022-09-23T00:01:22.900Z,101878.77
2022-09-23T00:01:52.967Z,101878.12
2022-09-23T00:02:23.074Z,101876.30
2022-09-23T00:02:53.125Z,101880.27
2022-09-23T00:03:23.151Z,101883.23
2022-09-23T00:03:53.145Z,101879.76
2022-09-23T00:04:23.140Z,101875.47
2022-09-23T00:04:53.112Z,101880.24
2022-09-23T00:05:23.104Z,101880.42
2022-09-23T00:05:53.102Z,101879.61
2022-09-23T00:06:23.085Z,101878.11
2022-09-23T00:06:53.068Z,101877.61
2022-09-23T00:07:23.061Z,101877.45
2022-09-23T00:07:53.064Z,101876.14
2022-09-23T00:08:23.063Z,101875.84
2022-09-23T00:08:53.065Z,101878.44
2022-09-23T00:09:23.046Z,101875.81
2022-09-23T00:09:53.049Z,101869.70
2022-09-23T00:10:23.048Z,101871.19
2022-09-23T00:10:53.032Z,101871.84
2022-09-23T00:11:23.021Z,101872.66
2022-09-23T00:11:53.001Z,101873.16
2022-09-23T00:12:22.983Z,101870.69
2022-09-23T00:12:52.985Z,101873.16
2022-09-23T00:13:22.970Z,101868.05
2022-09-23T00:13:52.963Z,101870.02
2022-09-23T00:14:22.940Z,101867.73
2022-09-23T00:14:52.948Z,101871.52
2022-09-23T00:15:22.926Z,101865.77
2022-09-23T00:15:52.911Z,101867.41
2022-09-23T00:16:22.977Z,101865.75
2022-09-23T00:16:53.204Z,101864.09
2022-09-23T00:17:23.340Z,101863.27
2022-09-23T00:17:53.324Z,101864.92
2022-09-23T00:18:23.319Z,101871.02
2022-09-23T00:18:53.291Z,101864.62
2022-09-23T00:19:23.288Z,101867.75
2022-09-23T00:19:53.280Z,101865.25
2022-09-23T00:20:23.259Z,101864.62
2022-09-23T00:20:53.253Z,101866.57
2022-09-23T00:21:23.247Z,101865.11
2022-09-23T00:21:53.235Z,101863.45
2022-09-23T00:22:23.228Z,101863.61
2022-09-23T00:22:53.222Z,101868.88
2022-09-23T00:23:23.221Z,101865.91
2022-09-23T00:23:53.203Z,101869.55
2022-09-23T00:24:23.185Z,101868.89
2022-09-23T00:24:53.168Z,101862.62
2022-09-23T00:25:23.149Z,101863.13
2022-09-23T00:25:53.144Z,101863.45
2022-09-23T00:26:23.134Z,101863.12
2022-09-23T00:26:53.115Z,101865.76
2022-09-23T00:27:23.099Z,101860.82
2022-09-23T00:27:53.083Z,101862.12
2022-09-23T00:28:23.078Z,101859.32
2022-09-23T00:28:53.065Z,101861.47
2022-09-23T00:29:23.053Z,101860.50
2022-09-23T00:29:53.073Z,101859.98
2022-09-23T00:30:23.183Z,101859.98
2022-09-23T00:30:53.280Z,101861.82
2022-09-23T00:31:23.403Z,101862.95
2022-09-23T00:31:53.429Z,101861.67
2022-09-23T00:32:23.442Z,101861.98
2022-09-23T00:32:53.420Z,101858.84
2022-09-23T00:33:23.395Z,101860.31
2022-09-23T00:33:53.383Z,101858.84
2022-09-23T00:34:23.366Z,101858.00
2022-09-23T00:34:53.350Z,101855.87
2022-09-23T00:35:23.359Z,101863.27
2022-09-23T00:35:53.341Z,101859.34
2022-09-23T00:36:23.317Z,101857.02
2022-09-23T00:36:53.301Z,101857.18
2022-09-23T00:37:23.292Z,101858.66
2022-09-23T00:37:53.274Z,101852.58
2022-09-23T00:38:23.272Z,101856.38
2022-09-23T00:38:53.288Z,101858.36
2022-09-23T00:39:23.269Z,101852.73
2022-09-23T00:39:53.254Z,101852.06
2022-09-23T00:40:23.342Z,101851.58
2022-09-23T00:40:53.370Z,101847.62
2022-09-23T00:41:23.361Z,101850.91
2022-09-23T00:41:53.341Z,101845.66
2022-09-23T00:42:23.325Z,101849.11
2022-09-23T00:42:53.317Z,101850.11
2022-09-23T00:43:23.321Z,101848.45
2022-09-23T00:43:53.326Z,101848.44
2022-09-23T00:44:23.317Z,101848.62
2022-09-23T00:44:53.297Z,101848.94
2022-09-23T00:45:23.298Z,101844.02
2022-09-23T00:45:53.459Z,101843.33
2022-09-23T00:46:23.629Z,101842.52
2022-09-23T00:46:53.661Z,101844.48
2022-09-23T00:47:23.638Z,101843.84
2022-09-23T00:47:53.618Z,101844.98
2022-09-23T00:48:23.609Z,101844.00
2022-09-23T00:48:53.603Z,101841.36
2022-09-23T00:49:23.584Z,101845.16
2022-09-23T00:49:53.565Z,101844.51
2022-09-23T00:50:23.538Z,101842.17
2022-09-23T00:50:53.576Z,101845.81
2022-09-23T00:51:23.583Z,101841.35
2022-09-23T00:51:53.560Z,101836.76
2022-09-23T00:52:23.543Z,101844.02
2022-09-23T00:52:53.520Z,101843.50
2022-09-23T00:53:23.497Z,101838.73
2022-09-23T00:53:53.500Z,101838.88
2022-09-23T00:54:23.480Z,101835.28
2022-09-23T00:54:53.474Z,101836.59
2022-09-23T00:55:23.454Z,101838.58
2022-09-23T00:55:53.424Z,101835.11
2022-09-23T00:56:23.406Z,101833.62
2022-09-23T00:56:53.422Z,101837.06
2022-09-23T00:57:23.417Z,101837.59
2022-09-23T00:57:53.395Z,101836.42
2022-09-23T00:58:23.379Z,101834.77
2022-09-23T00:58:53.365Z,101834.77
2022-09-23T00:59:23.365Z,101835.27
2022-09-23T00:59:53.353Z,101830.47
2022-09-23T01:00:23.337Z,101830.14
2022-09-23T01:00:53.429Z,101828.66
2022-09-23T01:01:23.567Z,101829.66
2022-09-23T01:01:53.614Z,101833.61
2022-09-23T01:02:23.632Z,101828.34
2022-09-23T01:02:53.666Z,101832.14
2022-09-23T01:03:23.654Z,101827.84
2022-09-23T01:03:53.628Z,101830.66
2022-09-23T01:04:23.641Z,101827.02
2022-09-23T01:04:53.628Z,101830.98
2022-09-23T01:05:23.612Z,101827.86
2022-09-23T01:05:53.593Z,101827.02
2022-09-23T01:06:23.581Z,101827.52
2022-09-23T01:06:53.550Z,101826.70
2022-09-23T01:07:23.548Z,101826.70
2022-09-23T01:07:53.552Z,101824.72
2022-09-23T01:08:23.528Z,101826.22
2022-09-23T01:08:53.511Z,101821.91
2022-09-23T01:09:23.499Z,101825.06
2022-09-23T01:09:53.514Z,101819.78
2022-09-23T01:10:23.487Z,101822.40
2022-09-23T01:10:53.477Z,101819.28
2022-09-23T01:11:23.474Z,101822.25
2022-09-23T01:11:53.450Z,101818.95
2022-09-23T01:12:23.437Z,101822.09
2022-09-23T01:12:53.421Z,101821.91
2022-09-23T01:13:23.396Z,101816.66
2022-09-23T01:13:53.406Z,101817.15
2022-09-23T01:14:23.380Z,101818.64
2022-09-23T01:14:53.381Z,101818.95
2022-09-23T01:15:23.379Z,101817.32
2022-09-23T01:15:53.374Z,101816.30
2022-09-23T01:16:23.480Z,101816.97
2022-09-23T01:16:53.568Z,101815.33
2022-09-23T01:17:23.629Z,101817.32
2022-09-23T01:17:53.611Z,101814.00
2022-09-23T01:18:23.593Z,101820.43
2022-09-23T01:18:53.570Z,101815.50
2022-09-23T01:19:23.553Z,101813.02
2022-09-23T01:19:53.531Z,101810.55
2022-09-23T01:20:23.516Z,101813.19
2022-09-23T01:20:53.494Z,101813.03
2022-09-23T01:21:23.483Z,101812.53
2022-09-23T01:21:53.460Z,101813.05
2022-09-23T01:22:23.450Z,101809.39
2022-09-23T01:22:53.423Z,101808.59
2022-09-23T01:23:23.411Z,101808.92
2022-09-23T01:23:53.383Z,101810.89
2022-09-23T01:24:23.367Z,101808.94
2022-09-23T01:24:53.361Z,101809.59
2022-09-23T01:25:23.340Z,101808.11
2022-09-23T01:25:53.441Z,101807.94
2022-09-23T01:26:23.414Z,101806.95
2022-09-23T01:26:53.383Z,101807.09
2022-09-23T01:27:23.372Z,101802.14
2022-09-23T01:27:53.354Z,101803.16
2022-09-23T01:28:23.346Z,101807.61
2022-09-23T01:28:53.344Z,101806.62
2022-09-23T01:29:23.340Z,101802.67
2022-09-23T01:29:53.323Z,101805.47
2022-09-23T01:30:23.313Z,101805.12
2022-09-23T01:30:53.392Z,101806.12
2022-09-23T01:31:23.492Z,101802.16
2022-09-23T01:31:53.515Z,101805.78
2022-09-23T01:32:23.512Z,101804.31
2022-09-23T01:32:53.494Z,101803.48
2022-09-23T01:33:23.486Z,101803.66
2022-09-23T01:33:53.474Z,101803.97
2022-09-23T01:34:23.482Z,101801.83
2022-09-23T01:34:53.455Z,101800.19
2022-09-23T01:35:23.437Z,101802.17
2022-09-23T01:35:53.415Z,101800.00
2022-09-23T01:36:23.411Z,101799.69
2022-09-23T01:36:53.391Z,101797.88
2022-09-23T01:37:23.389Z,101801.00
2022-09-23T01:37:53.378Z,101798.38
2022-09-23T01:38:23.357Z,101798.68
2022-09-23T01:38:53.357Z,101799.17
2022-09-23T01:39:23.364Z,101798.53
2022-09-23T01:39:53.345Z,101794.08
2022-09-23T01:40:23.396Z,101795.90
2022-09-23T01:40:53.397Z,101801.98
2022-09-23T01:41:23.381Z,101798.19
2022-09-23T01:41:53.363Z,101799.19
2022-09-23T01:42:23.340Z,101794.24
2022-09-23T01:42:53.350Z,101794.60
2022-09-23T01:43:23.333Z,101793.58
2022-09-23T01:43:53.321Z,101791.95
2022-09-23T01:44:23.316Z,101791.45
2022-09-23T01:44:53.300Z,101788.98
2022-09-23T01:45:23.294Z,101788.31
2022-09-23T01:45:53.272Z,101786.16
2022-09-23T01:46:23.255Z,101788.81
2022-09-23T01:46:53.236Z,101788.81
2022-09-23T01:47:23.210Z,101787.98
2022-09-23T01:47:53.306Z,101789.31
2022-09-23T01:48:23.389Z,101788.98
2022-09-23T01:48:53.393Z,101787.49
2022-09-23T01:49:23.391Z,101785.66
2022-09-23T01:49:53.380Z,101787.16
2022-09-23T01:50:23.404Z,101789.14
2022-09-23T01:50:53.396Z,101788.33
2022-09-23T01:51:23.382Z,101783.53
2022-09-23T01:51:53.415Z,101786.02
2022-09-23T01:52:23.419Z,101784.68
2022-09-23T01:52:53.465Z,101783.38
2022-09-23T01:53:23.467Z,101783.70
2022-09-23T01:53:53.464Z,101785.68
2022-09-23T01:54:23.479Z,101781.71
2022-09-23T01:54:53.475Z,101785.52
2022-09-23T01:55:23.460Z,101777.79
2022-09-23T01:55:53.467Z,101780.59
2022-09-23T01:56:23.454Z,101781.91
2022-09-23T01:56:53.457Z,101782.70
2022-09-23T01:57:23.442Z,101781.74
2022-09-23T01:57:53.475Z,101780.09
2022-09-23T01:58:23.482Z,101783.70
2022-09-23T01:58:53.461Z,101779.75
2022-09-23T01:59:23.479Z,101782.72
2022-09-23T01:59:53.482Z,101778.26
2022-09-23T02:00:23.504Z,101782.73
2022-09-23T02:00:53.602Z,101781.55
2022-09-23T02:01:23.710Z,101778.43
2022-09-23T02:01:53.747Z,101781.23
2022-09-23T02:02:23.850Z,101776.45
2022-09-23T02:02:53.900Z,101774.32
2022-09-23T02:03:23.942Z,101776.46
2022-09-23T02:03:53.940Z,101775.97
2022-09-23T02:04:23.940Z,101777.28
2022-09-23T02:04:53.924Z,101773.17
2022-09-23T02:05:23.906Z,101777.13
2022-09-23T02:05:53.888Z,101776.30
2022-09-23T02:06:23.868Z,101775.47
2022-09-23T02:06:53.851Z,101779.76
2022-09-23T02:07:23.847Z,101771.52
2022-09-23T02:07:53.823Z,101774.62
2022-09-23T02:08:23.798Z,101774.62
2022-09-23T02:08:53.789Z,101778.94
2022-09-23T02:09:23.773Z,101771.51
2022-09-23T02:09:53.751Z,101774.14
2022-09-23T02:10:23.764Z,101775.30
2022-09-23T02:10:53.761Z,101773.81
2022-09-23T02:11:23.754Z,101771.85
2022-09-23T02:11:53.739Z,101772.02
2022-09-23T02:12:23.719Z,101772.19
2022-09-23T02:12:53.704Z,101774.97
2022-09-23T02:13:23.684Z,101771.99
2022-09-23T02:13:53.664Z,101769.05
2022-09-23T02:14:23.638Z,101767.71
2022-09-23T02:14:53.619Z,101771.20
2022-09-23T02:15:23.600Z,101773.32
2022-09-23T02:15:53.591Z,101764.44
2022-09-23T02:16:23.633Z,101766.56
2022-09-23T02:16:53.666Z,101764.61
2022-09-23T02:17:23.658Z,101769.38
2022-09-23T02:17:53.638Z,101767.23
2022-09-23T02:18:23.621Z,101763.27
2022-09-23T02:18:53.627Z,101766.39
2022-09-23T02:19:23.623Z,101765.89
2022-09-23T02:19:53.597Z,101764.08
2022-09-23T02:20:23.598Z,101766.23
2022-09-23T02:20:53.599Z,101761.95
2022-09-23T02:21:23.583Z,101763.11
2022-09-23T02:21:53.573Z,101763.77
2022-09-23T02:22:23.557Z,101755.05
2022-09-23T02:22:53.535Z,101757.34
2022-09-23T02:23:23.527Z,101762.12
2022-09-23T02:23:53.503Z,101752.56
2022-09-23T02:24:23.477Z,101752.41
2022-09-23T02:24:53.470Z,101751.56
2022-09-23T02:25:23.451Z,101753.06
2022-09-23T02:25:53.445Z,101745.80
2022-09-23T02:26:23.450Z,101751.41
2022-09-23T02:26:53.429Z,101750.09
2022-09-23T02:27:23.455Z,101749.76
2022-09-23T02:27:53.431Z,101746.80
2022-09-23T02:28:23.437Z,101745.46
2022-09-23T02:28:53.453Z,101743.98
2022-09-23T02:29:23.450Z,101750.27
2022-09-23T02:29:53.435Z,101744.48
2022-09-23T02:30:23.413Z,101743.16
2022-09-23T02:30:53.403Z,101742.03
2022-09-23T02:31:23.445Z,101745.30
2022-09-23T02:31:53.518Z,101743.66
2022-09-23T02:32:23.508Z,101743.02
2022-09-23T02:32:53.500Z,101742.02
2022-09-23T02:33:23.518Z,101742.17
2022-09-23T02:33:53.611Z,101742.84
2022-09-23T02:34:23.635Z,101740.05
2022-09-23T02:34:53.621Z,101740.20
2022-09-23T02:35:23.610Z,101739.55
2022-09-23T02:35:53.594Z,101740.69
2022-09-23T02:36:23.592Z,101741.36
2022-09-23T02:36:53.575Z,101738.56
2022-09-23T02:37:23.558Z,101738.88
2022-09-23T02:37:53.540Z,101739.88
2022-09-23T02:38:23.523Z,101739.86
2022-09-23T02:38:53.505Z,101737.42
2022-09-23T02:39:23.486Z,101737.72
2022-09-23T02:39:53.467Z,101737.24
2022-09-23T02:40:23.748Z,101739.88
2022-09-23T02:40:53.929Z,101739.38
2022-09-23T02:41:23.978Z,101741.36
2022-09-23T02:41:53.956Z,101738.24
2022-09-23T02:42:23.940Z,101740.20
2022-09-23T02:42:53.944Z,101743.19
2022-09-23T02:43:23.939Z,101738.23
2022-09-23T02:43:53.927Z,101737.41
2022-09-23T02:44:23.906Z,101737.90
2022-09-23T02:44:53.884Z,101738.88
2022-09-23T02:45:23.856Z,101735.09
2022-09-23T02:45:53.909Z,101735.57
2022-09-23T02:46:23.987Z,101740.02
2022-09-23T02:46:54.022Z,101737.39
2022-09-23T02:47:24.016Z,101734.59
2022-09-23T02:47:53.993Z,101738.38
2022-09-23T02:48:23.975Z,101733.27
2022-09-23T02:48:53.955Z,101736.72
2022-09-23T02:49:23.937Z,101736.56
2022-09-23T02:49:53.944Z,101737.55
2022-09-23T02:50:23.925Z,101732.12
2022-09-23T02:50:53.904Z,101732.47
2022-09-23T02:51:23.908Z,101734.59
2022-09-23T02:51:53.903Z,101734.09
2022-09-23T02:52:23.885Z,101731.79
2022-09-23T02:52:53.865Z,101730.45
2022-09-23T02:53:23.854Z,101733.92
2022-09-23T02:53:53.854Z,101730.48
2022-09-23T02:54:23.832Z,101730.97
2022-09-23T02:54:53.818Z,101733.12
2022-09-23T02:55:23.801Z,101730.31
2022-09-23T02:55:53.781Z,101732.61
2022-09-23T02:56:23.775Z,101732.95
2022-09-23T02:56:53.763Z,101728.15
2022-09-23T02:57:23.761Z,101729.98
2022-09-23T02:57:53.761Z,101726.35
2022-09-23T02:58:23.741Z,101727.69
2022-09-23T02:58:53.717Z,101729.30
2022-09-23T02:59:23.705Z,101727.33
2022-09-23T02:59:53.690Z,101723.88
2022-09-23T03:00:23.678Z,101723.23
2022-09-23T03:00:53.711Z,101726.67
2022-09-23T03:01:23.829Z,101726.68
2022-09-23T03:01:53.890Z,101724.22
2022-09-23T03:02:23.995Z,101729.16
2022-09-23T03:02:54.045Z,101723.72
2022-09-23T03:03:24.025Z,101726.68
2022-09-23T03:03:54.022Z,101725.20
2022-09-23T03:04:24.000Z,101726.52
2022-09-23T03:04:53.992Z,101726.34
2022-09-23T03:05:24.013Z,101724.05
2022-09-23T03:05:54.028Z,101724.04
2022-09-23T03:06:24.049Z,101723.86
2022-09-23T03:06:54.039Z,101722.41
2022-09-23T03:07:24.034Z,101725.70
2022-09-23T03:07:54.020Z,101723.86
2022-09-23T03:08:23.998Z,101726.69
2022-09-23T03:08:53.979Z,101724.38
2022-09-23T03:09:23.960Z,101725.20
2022-09-23T03:09:53.957Z,101726.00
2022-09-23T03:10:23.979Z,101723.70
2022-09-23T03:10:53.956Z,101725.02
2022-09-23T03:11:23.929Z,101725.19
2022-09-23T03:11:53.922Z,101723.56
2022-09-23T03:12:23.910Z,101720.42
2022-09-23T03:12:53.897Z,101720.42
2022-09-23T03:13:28.659Z,101725.53
2022-09-23T03:13:58.807Z,101722.90
2022-09-23T03:14:28.800Z,101722.38
2022-09-23T03:14:58.780Z,101721.05
2022-09-23T03:15:28.756Z,101720.08
2022-09-23T03:15:58.740Z,101720.25
2022-09-23T03:16:28.782Z,101720.58
2022-09-23T03:16:58.781Z,101719.92
2022-09-23T03:17:28.768Z,101716.60
2022-09-23T03:17:58.756Z,101718.24
2022-09-23T03:18:28.738Z,101720.88
2022-09-23T03:18:58.744Z,101717.94
2022-09-23T03:19:28.721Z,101719.42
2022-09-23T03:19:58.704Z,101719.42
2022-09-23T03:20:28.729Z,101720.41
2022-09-23T03:20:58.704Z,101716.27
2022-09-23T03:21:28.678Z,101715.95
2022-09-23T03:21:58.668Z,101715.80
2022-09-23T03:22:28.648Z,101717.59
2022-09-23T03:22:58.629Z,101715.95
2022-09-23T03:23:28.610Z,101717.42
2022-09-23T03:23:58.598Z,101713.47
2022-09-23T03:24:28.589Z,101716.44
2022-09-23T03:24:58.575Z,101708.36
2022-09-23T03:25:28.581Z,101714.64
2022-09-23T03:25:58.562Z,101709.53
2022-09-23T03:26:28.572Z,101706.23
2022-09-23T03:26:58.555Z,101707.55
2022-09-23T03:27:28.548Z,101707.72
2022-09-23T03:27:58.540Z,101709.20
2022-09-23T03:28:28.531Z,101708.37
2022-09-23T03:28:58.514Z,101707.20
2022-09-23T03:29:28.495Z,101705.58
2022-09-23T03:29:58.477Z,101705.59
2022-09-23T03:30:28.457Z,101709.02
2022-09-23T03:30:58.434Z,101709.18
2022-09-23T03:31:28.508Z,101708.03
2022-09-23T03:31:58.631Z,101710.69
2022-09-23T03:32:28.671Z,101707.20
2022-09-23T03:32:58.674Z,101706.39
2022-09-23T03:33:29.114Z,101706.41
2022-09-23T03:33:59.151Z,101704.74
2022-09-23T03:34:29.130Z,101704.73
2022-09-23T03:34:59.131Z,101704.92
2022-09-23T03:35:29.122Z,101704.23
2022-09-23T03:35:59.177Z,101699.95
2022-09-23T03:36:29.156Z,101705.56
2022-09-23T03:36:59.153Z,101708.22
2022-09-23T03:37:29.151Z,101700.45
2022-09-23T03:37:59.163Z,101701.61
2022-09-23T03:38:29.153Z,101701.78
2022-09-23T03:38:59.229Z,101698.64
2022-09-23T03:39:29.264Z,101702.77
2022-09-23T03:39:59.259Z,101697.31
2022-09-23T03:40:29.282Z,101696.50
2022-09-23T03:40:59.279Z,101702.42
2022-09-23T03:41:29.281Z,101699.63
2022-09-23T03:41:59.268Z,101704.26
2022-09-23T03:42:29.252Z,101699.31
2022-09-23T03:42:59.239Z,101702.42
2022-09-23T03:43:30.061Z,101704.07
2022-09-23T03:44:00.084Z,101699.96
2022-09-23T03:44:30.096Z,101701.11
2022-09-23T03:45:00.088Z,101698.66
2022-09-23T03:45:30.182Z,101701.92
2022-09-23T03:46:00.324Z,101697.66
2022-09-23T03:46:30.358Z,101699.95
2022-09-23T03:47:00.356Z,101697.98
2022-09-23T03:47:30.371Z,101697.66
2022-09-23T03:48:00.352Z,101697.81
2022-09-23T03:48:30.350Z,101701.45
2022-09-23T03:49:00.366Z,101695.34
2022-09-23T03:49:30.348Z,101695.19
2022-09-23T03:50:00.341Z,101698.48
2022-09-23T03:50:30.321Z,101698.80
2022-09-23T03:51:00.307Z,101699.29
2022-09-23T03:51:30.312Z,101697.83
2022-09-23T03:52:00.289Z,101693.21
2022-09-23T03:52:30.287Z,101695.36
2022-09-23T03:53:00.274Z,101697.84
2022-09-23T03:53:30.265Z,101694.55
2022-09-23T03:54:00.260Z,101695.20
2022-09-23T03:54:30.252Z,101692.89
2022-09-23T03:55:00.245Z,101694.38
2022-09-23T03:55:30.228Z,101695.53
2022-09-23T03:56:00.203Z,101695.52
2022-09-23T03:56:30.198Z,101693.86
2022-09-23T03:57:00.177Z,101694.34
2022-09-23T03:57:30.156Z,101694.86
2022-09-23T03:58:00.132Z,101694.04
2022-09-23T03:58:30.112Z,101692.88
2022-09-23T03:59:00.105Z,101693.39
2022-09-23T03:59:30.092Z,101691.58
2022-09-23T04:00:00.070Z,101692.55
2022-09-23T04:00:30.085Z,101691.73
2022-09-23T04:01:00.190Z,101690.09
2022-09-23T04:01:30.301Z,101690.91
2022-09-23T04:02:00.381Z,101688.60
2022-09-23T04:02:30.493Z,101690.09
2022-09-23T04:03:00.487Z,101688.12
2022-09-23T04:03:30.462Z,101687.44
2022-09-23T04:04:00.469Z,101688.77
2022-09-23T04:04:30.489Z,101685.80
2022-09-23T04:05:00.481Z,101687.45
2022-09-23T04:05:30.526Z,101684.15
2022-09-23T04:06:00.499Z,101684.97
2022-09-23T04:06:30.488Z,101685.95
2022-09-23T04:07:00.492Z,101681.66
2022-09-23T04:07:30.469Z,101681.84
2022-09-23T04:08:00.452Z,101682.16
2022-09-23T04:08:30.432Z,101681.35
2022-09-23T04:09:00.414Z,101679.38
2022-09-23T04:09:30.408Z,101682.33
2022-09-23T04:10:00.388Z,101679.53
2022-09-23T04:10:30.380Z,101678.03
2022-09-23T04:11:00.376Z,101675.42
2022-09-23T04:11:30.356Z,101678.72
2022-09-23T04:12:00.338Z,101674.26
2022-09-23T04:12:30.330Z,101680.69
2022-09-23T04:13:00.307Z,101679.05
2022-09-23T04:13:30.288Z,101677.56
2022-09-23T04:14:00.267Z,101679.55
2022-09-23T04:14:30.239Z,101678.72
2022-09-23T04:15:00.233Z,101676.39
2022-09-23T04:15:30.221Z,101672.09
2022-09-23T04:16:00.268Z,101676.06
2022-09-23T04:16:30.354Z,101673.09
2022-09-23T04:17:00.398Z,101672.12
2022-09-23T04:17:30.381Z,101673.27
2022-09-23T04:18:00.379Z,101670.46
2022-09-23T04:18:30.368Z,101672.78
2022-09-23T04:19:00.349Z,101673.94
2022-09-23T04:19:30.331Z,101673.61
2022-09-23T04:20:00.331Z,101674.75
2022-09-23T04:20:30.297Z,101672.27
2022-09-23T04:21:00.307Z,101671.30
2022-09-23T04:21:30.325Z,101672.45
2022-09-23T04:22:00.308Z,101668.32
2022-09-23T04:22:30.321Z,101669.30
2022-09-23T04:23:00.303Z,101666.52
2022-09-23T04:23:30.288Z,101668.48
2022-09-23T04:24:00.279Z,101664.87
2022-09-23T04:24:30.283Z,101664.21
2022-09-23T04:25:00.272Z,101664.52
2022-09-23T04:25:30.266Z,101664.53
2022-09-23T04:26:00.254Z,101664.68
2022-09-23T04:26:30.242Z,101665.35
2022-09-23T04:27:00.236Z,101664.03
2022-09-23T04:27:34.206Z,101666.52
2022-09-23T04:28:05.163Z,101658.59
2022-09-23T04:28:35.143Z,101664.37
2022-09-23T04:29:05.264Z,101663.22
2022-09-23T04:29:35.403Z,101658.41
2022-09-23T04:30:05.392Z,101666.33
2022-09-23T04:30:35.385Z,101662.39
2022-09-23T04:31:05.490Z,101661.39
2022-09-23T04:31:35.617Z,101661.39
2022-09-23T04:32:05.693Z,101665.70
2022-09-23T04:32:35.681Z,101661.07
2022-09-23T04:33:05.667Z,101660.91
2022-09-23T04:33:35.694Z,101656.13
2022-09-23T04:34:05.673Z,101660.24
2022-09-23T04:34:35.659Z,101659.94
2022-09-23T04:35:05.642Z,101659.94
2022-09-23T04:35:39.929Z,101660.40
2022-09-23T04:36:10.230Z,101662.23
2022-09-23T04:36:40.214Z,101660.40
2022-09-23T04:37:10.200Z,101657.28
2022-09-23T04:37:40.247Z,101657.94
2022-09-23T04:38:10.237Z,101658.28
2022-09-23T04:38:40.227Z,101657.95
2022-09-23T04:39:10.269Z,101656.47
2022-09-23T04:39:40.297Z,101651.03
2022-09-23T04:40:10.355Z,101658.75
2022-09-23T04:40:40.533Z,101655.62
2022-09-23T04:41:10.584Z,101655.97
2022-09-23T04:41:40.572Z,101657.61
2022-09-23T04:42:10.592Z,101656.78
2022-09-23T04:42:40.571Z,101650.34
2022-09-23T04:43:13.463Z,101653.66
2022-09-23T04:43:43.665Z,101649.87
2022-09-23T04:44:13.669Z,101654.31
2022-09-23T04:44:43.653Z,101648.22
2022-09-23T04:45:13.647Z,101653.32
2022-09-23T04:45:43.645Z,101650.19
2022-09-23T04:46:13.663Z,101651.02
2022-09-23T04:46:43.794Z,101652.33
2022-09-23T04:47:13.842Z,101652.17
2022-09-23T04:47:43.824Z,101655.80
2022-09-23T04:48:13.805Z,101655.95
2022-09-23T04:48:43.797Z,101658.94
2022-09-23T04:49:13.778Z,101653.19
2022-09-23T04:49:43.760Z,101657.30
2022-09-23T04:50:13.745Z,101654.98
2022-09-23T04:50:43.726Z,101654.49
2022-09-23T04:51:13.726Z,101654.67
2022-09-23T04:51:43.871Z,101656.97
2022-09-23T04:52:13.869Z,101655.50
2022-09-23T04:52:43.868Z,101652.52
2022-09-23T04:53:13.855Z,101652.36
2022-09-23T04:53:43.837Z,101655.81
2022-09-23T04:54:13.823Z,101655.66
2022-09-23T04:54:43.808Z,101654.33
2022-09-23T04:55:13.796Z,101655.50
2022-09-23T04:55:43.777Z,101651.88
2022-09-23T04:56:13.758Z,101656.97
2022-09-23T04:56:43.748Z,101649.23
2022-09-23T04:57:13.740Z,101653.20
2022-09-23T04:57:43.719Z,101651.53
2022-09-23T04:58:13.701Z,101650.06
2022-09-23T04:58:43.687Z,101656.66
2022-09-23T04:59:13.679Z,101642.81
2022-09-23T04:59:43.667Z,101647.24
2022-09-23T05:00:13.671Z,101647.09
2022-09-23T05:00:43.740Z,101645.10
2022-09-23T05:01:13.818Z,101647.59
2022-09-23T05:01:43.946Z,101644.77
2022-09-23T05:02:14.061Z,101645.12
2022-09-23T05:02:44.079Z,101645.94
2022-09-23T05:03:14.060Z,101648.25
2022-09-23T05:03:44.042Z,101646.91
2022-09-23T05:04:14.246Z,101643.45
2022-09-23T05:04:44.332Z,101642.97
2022-09-23T05:05:14.330Z,101641.32
2022-09-23T05:05:44.339Z,101638.86
2022-09-23T05:06:14.313Z,101642.14
2022-09-23T05:06:44.298Z,101642.47
2022-09-23T05:07:14.301Z,101642.65
2022-09-23T05:07:44.284Z,101644.45
2022-09-23T05:08:14.305Z,101640.82
2022-09-23T05:08:44.294Z,101641.16
2022-09-23T05:09:14.303Z,101640.01
2022-09-23T05:09:44.281Z,101641.64
2022-09-23T05:10:14.255Z,101642.14
2022-09-23T05:10:44.238Z,101644.31
2022-09-23T05:11:14.218Z,101641.01
2022-09-23T05:11:44.207Z,101644.47
2022-09-23T05:12:14.183Z,101645.29
2022-09-23T05:12:44.187Z,101641.83
2022-09-23T05:13:14.169Z,101641.16
2022-09-23T05:13:44.151Z,101643.30
2022-09-23T05:14:14.148Z,101642.97
2022-09-23T05:14:44.146Z,101639.67
2022-09-23T05:15:14.136Z,101642.97
2022-09-23T05:15:44.121Z,101642.97
2022-09-23T05:16:14.174Z,101644.31
2022-09-23T05:16:44.275Z,101644.45
2022-09-23T05:17:14.291Z,101640.67
2022-09-23T05:17:44.280Z,101642.47
2022-09-23T05:18:16.906Z,101644.97
2022-09-23T05:18:49.198Z,101643.13
2022-09-23T05:19:19.182Z,101645.47
2022-09-23T05:19:49.173Z,101644.47
2022-09-23T05:20:19.148Z,101643.31
2022-09-23T05:20:49.132Z,101643.16
2022-09-23T05:21:19.113Z,101643.32
2022-09-23T05:21:49.088Z,101648.73
2022-09-23T05:22:19.073Z,101646.11
2022-09-23T05:22:49.064Z,101648.29
2022-09-23T05:23:19.070Z,101642.69
2022-09-23T05:23:49.053Z,101646.94
2022-09-23T05:24:19.048Z,101646.12
2022-09-23T05:24:49.041Z,101645.63
2022-09-23T05:25:19.023Z,101645.45
2022-09-23T05:25:49.008Z,101645.45
2022-09-23T05:26:18.990Z,101646.60
2022-09-23T05:26:48.971Z,101643.79
2022-09-23T05:27:18.967Z,101643.79
2022-09-23T05:27:48.955Z,101642.97
2022-09-23T05:28:18.942Z,101642.48
2022-09-23T05:28:49.012Z,101641.48
2022-09-23T05:29:19.022Z,101643.96
2022-09-23T05:29:49.005Z,101644.47
2022-09-23T05:30:19.019Z,101643.48
2022-09-23T05:30:49.011Z,101642.64
2022-09-23T05:31:20.715Z,101643.63
2022-09-23T05:31:50.999Z,101639.53
2022-09-23T05:32:20.994Z,101643.30
2022-09-23T05:32:50.985Z,101638.39
2022-09-23T05:33:20.986Z,101641.02
2022-09-23T05:33:50.973Z,101637.39
2022-09-23T05:34:20.975Z,101638.21
2022-09-23T05:34:50.964Z,101638.55
2022-09-23T05:35:20.941Z,101638.88
2022-09-23T05:35:50.932Z,101638.21
2022-09-23T05:36:20.947Z,101638.55
2022-09-23T05:36:50.953Z,101634.41
2022-09-23T05:37:20.935Z,101638.38
2022-09-23T05:37:50.915Z,101635.73
2022-09-23T05:38:20.894Z,101634.77
2022-09-23T05:38:50.963Z,101637.41
2022-09-23T05:39:20.961Z,101635.77
2022-09-23T05:39:50.968Z,101632.47
2022-09-23T05:40:21.018Z,101637.05
2022-09-23T05:40:51.149Z,101632.44
2022-09-23T05:41:21.199Z,101639.38
2022-09-23T05:41:51.173Z,101632.78
2022-09-23T05:42:21.158Z,101637.23
2022-09-23T05:42:51.136Z,101636.23